Time;durP1;ratioP1;P1;durP2;ratioP2;P2;SDS_P1;SDS_P2;PMS_P1;PMS_P2;Temp;Humidity;BMP_temperature;BMP_pressure;BME280_temperature;BME280_humidity;BME280_pressure;Samples;Min_cycle;Max_cycle;Signal;HPM_P1;HPM_P2
2021/04/05 00:00:03;;;;;;;11.00;7.00;;;;;;;;;;5091690;28;20200;-74
2021/04/05 00:02:30;;;;;;;14.52;7.03;;;;;;;;;;5091369;28;20219;-73
2021/04/05 00:04:56;;;;;;;19.45;7.90;;;;;;;;;;5092061;28;20237;-74
2021/04/05 00:07:22;;;;;;;21.17;7.47;;;;;;;;;;5091430;28;20260;-73
2021/04/05 00:09:48;;;;;;;14.32;6.97;;;;;;;;;;5092033;28;20296;-73
2021/04/05 00:12:14;;;;;;;20.02;9.38;;;;;;;;;;5091141;28;20196;-74
2021/04/05 00:14:42;;;;;;;11.90;7.57;;;;;;;;;;5091794;28;20665;-74
2021/04/05 00:17:08;;;;;;;14.85;7.70;;;;;;;;;;5091605;28;20200;-73
2021/04/05 00:19:35;;;;;;;15.25;7.40;;;;;;;;;;5091267;28;20204;-73
2021/04/05 00:22:01;;;;;;;9.90;6.45;;;;;;;;;;5092006;28;20208;-73
2021/04/05 00:24:27;;;;;;;14.93;7.78;;;;;;;;;;5091506;28;20290;-74
2021/04/05 00:26:53;;;;;;;17.08;7.20;;;;;;;;;;5093346;28;20199;-74
2021/04/05 00:29:19;;;;;;;13.15;7.20;;;;;;;;;;5095107;28;20224;-73
2021/04/05 00:31:46;;;;;;;12.70;7.20;;;;;;;;;;5095485;28;20215;-74
2021/04/05 00:34:12;;;;;;;15.65;8.40;;;;;;;;;;5095256;28;20203;-73
2021/04/05 00:36:39;;;;;;;14.68;8.07;;;;;;;;;;5095118;28;20239;-73
2021/04/05 00:39:05;;;;;;;16.55;7.95;;;;;;;;;;5095534;28;20239;-73
2021/04/05 00:41:32;;;;;;;12.13;6.78;;;;;;;;;;5095808;28;20273;-74
2021/04/05 00:43:58;;;;;;;20.80;7.75;;;;;;;;;;5095929;28;20196;-73
2021/04/05 00:46:25;;;;;;;16.10;6.78;;;;;;;;;;5095334;28;20337;-73
2021/04/05 00:48:52;;;;;;;11.75;6.72;;;;;;;;;;5094764;28;20216;-73
2021/04/05 00:51:19;;;;;;;14.55;7.85;;;;;;;;;;5095605;28;20232;-73
2021/04/05 00:53:46;;;;;;;20.02;7.30;;;;;;;;;;5095292;28;20234;-74
2021/04/05 00:56:14;;;;;;;10.73;7.07;;;;;;;;;;5095157;28;20206;-74
2021/04/05 00:58:40;;;;;;;13.38;7.80;;;;;;;;;;5095423;28;20306;-74
2021/04/05 01:01:07;;;;;;;16.75;7.78;;;;;;;;;;5095308;28;20678;-73
2021/04/05 01:03:35;;;;;;;18.55;7.57;;;;;;;;;;5094411;28;20206;-73
2021/04/05 01:06:03;;;;;;;13.68;7.00;;;;;;;;;;5093472;28;20232;-73
2021/04/05 01:08:29;;;;;;;10.85;7.18;;;;;;;;;;5093225;28;20265;-73
2021/04/05 01:10:56;;;;;;;10.18;7.95;;;;;;;;;;5091818;28;20229;-73
2021/04/05 01:13:22;;;;;;;14.77;8.23;;;;;;;;;;5092710;28;20989;-72
2021/04/05 01:15:48;;;;;;;16.30;8.52;;;;;;;;;;5094503;28;20200;-74
2021/04/05 01:18:14;;;;;;;16.05;7.63;;;;;;;;;;5094797;28;20191;-73
2021/04/05 01:20:40;;;;;;;13.00;7.88;;;;;;;;;;5094968;28;20250;-73
2021/04/05 01:23:07;;;;;;;14.48;7.63;;;;;;;;;;5094362;28;20648;-72
2021/04/05 01:25:33;;;;;;;17.33;6.75;;;;;;;;;;5094470;28;20261;-73
2021/04/05 01:28:00;;;;;;;15.75;6.75;;;;;;;;;;5094128;28;20617;-75
2021/04/05 01:30:31;;;;;;;13.43;7.93;;;;;;;;;;5094555;28;20584;-73
2021/04/05 01:33:05;;;;;;;11.77;7.13;;;;;;;;;;5093683;28;20214;-73
2021/04/05 01:35:33;;;;;;;10.98;5.72;;;;;;;;;;5093068;28;20187;-73
2021/04/05 01:37:59;;;;;;;15.30;7.45;;;;;;;;;;5094016;28;20191;-74
2021/04/05 01:40:26;;;;;;;18.48;7.07;;;;;;;;;;5094108;28;20626;-73
2021/04/05 01:42:53;;;;;;;11.80;6.43;;;;;;;;;;5094135;28;20223;-73
2021/04/05 01:45:19;;;;;;;11.65;6.75;;;;;;;;;;5094044;28;20204;-73
2021/04/05 01:47:45;;;;;;;13.38;7.07;;;;;;;;;;5093106;28;20309;-73
2021/04/05 01:50:12;;;;;;;10.98;6.18;;;;;;;;;;5093302;28;20206;-72
2021/04/05 01:52:39;;;;;;;11.40;6.75;;;;;;;;;;5093842;28;20283;-73
2021/04/05 01:55:06;;;;;;;9.95;6.00;;;;;;;;;;5093957;28;20306;-73
2021/04/05 01:57:33;;;;;;;12.32;5.60;;;;;;;;;;5093844;28;20184;-74
2021/04/05 01:59:59;;;;;;;8.25;4.97;;;;;;;;;;5093810;28;20262;-74
2021/04/05 02:02:25;;;;;;;11.60;5.70;;;;;;;;;;5093747;28;20200;-73
2021/04/05 02:04:51;;;;;;;22.35;5.90;;;;;;;;;;5093111;28;20438;-74
2021/04/05 02:07:17;;;;;;;13.68;7.38;;;;;;;;;;5094021;28;20675;-73
2021/04/05 02:09:43;;;;;;;12.07;4.88;;;;;;;;;;5093449;28;20192;-73
2021/04/05 02:12:10;;;;;;;10.98;5.78;;;;;;;;;;5093518;28;20308;-73
2021/04/05 02:14:38;;;;;;;9.75;4.43;;;;;;;;;;5093380;28;20279;-73
2021/04/05 02:17:05;;;;;;;10.60;5.40;;;;;;;;;;5093617;28;20192;-73
2021/04/05 02:19:31;;;;;;;10.50;5.97;;;;;;;;;;5094017;28;20200;-73
2021/04/05 02:21:57;;;;;;;16.63;6.43;;;;;;;;;;5093300;28;20209;-73
2021/04/05 02:24:23;;;;;;;14.00;4.57;;;;;;;;;;5091664;28;20907;-73
2021/04/05 02:26:49;;;;;;;9.90;5.18;;;;;;;;;;5093397;28;20626;-73
2021/04/05 02:29:18;;;;;;;19.40;5.75;;;;;;;;;;5093501;28;20245;-73
2021/04/05 02:31:45;;;;;;;10.18;5.60;;;;;;;;;;5092288;28;20191;-73
2021/04/05 02:34:12;;;;;;;12.55;6.32;;;;;;;;;;5093059;28;20207;-73
2021/04/05 02:36:39;;;;;;;11.77;6.22;;;;;;;;;;5092552;28;20592;-73
2021/04/05 02:39:06;;;;;;;6.18;3.70;;;;;;;;;;5092775;28;20220;-74
2021/04/05 02:41:33;;;;;;;17.83;6.55;;;;;;;;;;5093399;28;20585;-73
2021/04/05 02:44:00;;;;;;;16.08;6.15;;;;;;;;;;5093607;28;20233;-74
2021/04/05 02:46:27;;;;;;;16.13;7.07;;;;;;;;;;5092746;28;20184;-73
2021/04/05 02:48:55;;;;;;;13.43;5.32;;;;;;;;;;5092519;28;20234;-73
2021/04/05 02:51:21;;;;;;;17.08;6.72;;;;;;;;;;5093460;28;20249;-73
2021/04/05 02:53:49;;;;;;;8.63;5.22;;;;;;;;;;5093018;28;20271;-73
2021/04/05 02:56:15;;;;;;;16.35;5.78;;;;;;;;;;5092234;28;20196;-73
2021/04/05 02:58:42;;;;;;;10.57;5.43;;;;;;;;;;5092575;28;20202;-73
2021/04/05 03:01:08;;;;;;;10.88;5.50;;;;;;;;;;5092932;28;20660;-73
2021/04/05 03:03:35;;;;;;;13.77;6.13;;;;;;;;;;5093011;28;20206;-73
2021/04/05 03:06:02;;;;;;;13.90;6.00;;;;;;;;;;5090979;28;20230;-74
2021/04/05 03:08:28;;;;;;;13.88;6.45;;;;;;;;;;5090299;28;20215;-74
2021/04/05 03:10:56;;;;;;;11.57;5.88;;;;;;;;;;5090340;28;20579;-74
2021/04/05 03:13:22;;;;;;;13.48;5.95;;;;;;;;;;5092214;28;20287;-74
2021/04/05 03:15:49;;;;;;;14.88;8.20;;;;;;;;;;5092509;28;20199;-73
2021/04/05 03:18:16;;;;;;;15.07;6.60;;;;;;;;;;5092809;28;20200;-73
2021/04/05 03:20:42;;;;;;;16.73;6.85;;;;;;;;;;5091093;28;20222;-73
2021/04/05 03:23:09;;;;;;;19.30;8.23;;;;;;;;;;5092528;28;20204;-73
2021/04/05 03:25:35;;;;;;;12.82;7.68;;;;;;;;;;5092405;28;20269;-73
2021/04/05 03:28:01;;;;;;;20.50;7.10;;;;;;;;;;5090711;28;20258;-73
2021/04/05 03:30:31;;;;;;;14.27;7.47;;;;;;;;;;5091654;28;20199;-74
2021/04/05 03:32:59;;;;;;;20.13;9.23;;;;;;;;;;5092478;28;20200;-73
2021/04/05 03:35:30;;;;;;;12.52;6.53;;;;;;;;;;5091858;28;20692;-73
2021/04/05 03:37:57;;;;;;;14.98;8.45;;;;;;;;;;5092136;28;20184;-73
2021/04/05 03:40:24;;;;;;;14.55;5.72;;;;;;;;;;5091772;28;20200;-73
2021/04/05 03:42:53;;;;;;;10.93;6.25;;;;;;;;;;5092238;28;20677;-73
2021/04/05 03:45:21;;;;;;;18.33;7.88;;;;;;;;;;5092277;28;20296;-74
2021/04/05 03:47:51;;;;;;;16.70;8.15;;;;;;;;;;5091661;28;20207;-75
2021/04/05 03:50:18;;;;;;;21.05;7.20;;;;;;;;;;5091904;28;20205;-73
2021/04/05 03:52:48;;;;;;;19.88;7.57;;;;;;;;;;5092171;28;20267;-73
2021/04/05 03:55:16;;;;;;;13.52;4.95;;;;;;;;;;5092084;28;20244;-73
2021/04/05 03:57:47;;;;;;;10.68;6.00;;;;;;;;;;5092366;28;20596;-74
2021/04/05 04:00:15;;;;;;;18.85;8.90;;;;;;;;;;5091847;28;20194;-73
2021/04/05 04:02:42;;;;;;;15.65;7.07;;;;;;;;;;5095400;28;20195;-74
2021/04/05 04:05:13;;;;;;;13.90;7.20;;;;;;;;;;5095778;28;20286;-73
2021/04/05 04:07:40;;;;;;;16.73;8.48;;;;;;;;;;5096218;28;20198;-74
2021/04/05 04:10:09;;;;;;;19.10;7.00;;;;;;;;;;5096333;28;20916;-74
2021/04/05 04:12:36;;;;;;;14.25;7.45;;;;;;;;;;5095856;28;20211;-73
2021/04/05 04:15:05;;;;;;;18.35;8.00;;;;;;;;;;5096159;28;20237;-73
2021/04/05 04:17:32;;;;;;;14.10;7.35;;;;;;;;;;5095271;28;20206;-73
2021/04/05 04:20:02;;;;;;;16.10;8.30;;;;;;;;;;5096106;28;20553;-73
2021/04/05 04:22:28;;;;;;;25.95;8.60;;;;;;;;;;5095205;28;20246;-73
2021/04/05 04:24:54;;;;;;;23.85;9.48;;;;;;;;;;5095782;28;20208;-73
2021/04/05 04:27:20;;;;;;;18.27;8.45;;;;;;;;;;5095310;28;20195;-74
2021/04/05 04:29:51;;;;;;;21.75;9.60;;;;;;;;;;5095955;28;20205;-73
2021/04/05 04:32:18;;;;;;;15.80;7.95;;;;;;;;;;5095551;28;20585;-73
2021/04/05 04:34:44;;;;;;;15.00;8.63;;;;;;;;;;5095995;28;20213;-73
2021/04/05 04:37:11;;;;;;;16.45;9.43;;;;;;;;;;5094972;28;20223;-73
2021/04/05 04:39:37;;;;;;;22.08;9.63;;;;;;;;;;5095478;28;20264;-73
2021/04/05 04:42:03;;;;;;;21.17;8.70;;;;;;;;;;5095377;28;20196;-73
2021/04/05 04:44:29;;;;;;;17.55;7.60;;;;;;;;;;5095093;28;20687;-75
2021/04/05 04:46:56;;;;;;;20.17;8.40;;;;;;;;;;5094893;28;20210;-73
2021/04/05 04:49:23;;;;;;;22.33;9.18;;;;;;;;;;5095401;28;20233;-73
2021/04/05 04:51:49;;;;;;;27.85;10.00;;;;;;;;;;5095579;28;20195;-73
2021/04/05 04:54:15;;;;;;;18.58;9.60;;;;;;;;;;5095457;28;20271;-74
2021/04/05 04:56:41;;;;;;;24.05;8.88;;;;;;;;;;5094860;28;20317;-73
2021/04/05 04:59:08;;;;;;;20.00;8.55;;;;;;;;;;5095053;28;20207;-73
2021/04/05 05:01:35;;;;;;;20.02;9.10;;;;;;;;;;5095396;28;20208;-73
2021/04/05 05:04:03;;;;;;;23.30;10.07;;;;;;;;;;5094795;28;20234;-74
2021/04/05 05:06:30;;;;;;;19.30;8.05;;;;;;;;;;5093596;28;20210;-73
2021/04/05 05:08:57;;;;;;;17.30;8.60;;;;;;;;;;5095188;28;20354;-73
2021/04/05 05:11:24;;;;;;;25.77;11.63;;;;;;;;;;5094756;28;20256;-74
2021/04/05 05:13:50;;;;;;;18.75;9.30;;;;;;;;;;5094653;28;20210;-75
2021/04/05 05:16:16;;;;;;;23.38;9.77;;;;;;;;;;5094346;28;20192;-74
2021/04/05 05:18:42;;;;;;;24.02;8.93;;;;;;;;;;5094733;28;20533;-73
2021/04/05 05:21:11;;;;;;;24.02;9.00;;;;;;;;;;5093996;28;20204;-74
2021/04/05 05:23:41;;;;;;;24.98;8.82;;;;;;;;;;5093752;28;20196;-73
2021/04/05 05:26:08;;;;;;;24.40;9.13;;;;;;;;;;5094518;28;20609;-73
2021/04/05 05:28:36;;;;;;;32.20;10.93;;;;;;;;;;5094242;28;20216;-73
2021/04/05 05:31:02;;;;;;;23.70;10.68;;;;;;;;;;5094364;28;20195;-72
2021/04/05 05:33:28;;;;;;;18.52;8.75;;;;;;;;;;5094424;28;20509;-72
2021/04/05 05:35:56;;;;;;;21.23;9.13;;;;;;;;;;5094199;28;20238;-73
2021/04/05 05:38:22;;;;;;;18.30;7.88;;;;;;;;;;5093258;28;20196;-73
2021/04/05 05:40:50;;;;;;;22.90;9.57;;;;;;;;;;5094168;28;20195;-71
2021/04/05 05:43:37;;;;;;;23.17;9.00;;;;;;;;;;5093847;28;20257;-71
2021/04/05 05:46:07;;;;;;;18.30;7.72;;;;;;;;;;5088551;28;20249;-72
2021/04/05 05:48:41;;;;;;;23.73;10.13;;;;;;;;;;5093910;28;20216;-71
2021/04/05 05:51:10;;;;;;;26.75;9.30;;;;;;;;;;5093631;28;20282;-71
2021/04/05 05:53:41;;;;;;;17.25;8.65;;;;;;;;;;5093610;28;20184;-72
2021/04/05 05:56:31;;;;;;;17.33;7.88;;;;;;;;;;5093429;28;20275;-71
2021/04/05 05:59:02;;;;;;;17.23;9.23;;;;;;;;;;5077344;28;20200;-71
2021/04/05 06:01:37;;;;;;;22.83;10.15;;;;;;;;;;5093322;28;20192;-72
2021/04/05 06:04:10;;;;;;;19.50;10.25;;;;;;;;;;5093618;28;20199;-71
2021/04/05 06:06:42;;;;;;;18.42;8.10;;;;;;;;;;5093891;28;20509;-72
2021/04/05 06:09:12;;;;;;;29.05;10.70;;;;;;;;;;5093949;28;20210;-71
2021/04/05 06:11:46;;;;;;;13.80;7.88;;;;;;;;;;5094299;28;20202;-72
2021/04/05 06:14:23;;;;;;;19.00;8.05;;;;;;;;;;5093418;28;20241;-72
2021/04/05 06:16:51;;;;;;;26.70;9.23;;;;;;;;;;5093679;28;20200;-72
2021/04/05 06:19:27;;;;;;;16.60;9.18;;;;;;;;;;5093207;28;20195;-73
2021/04/05 06:21:57;;;;;;;18.92;9.85;;;;;;;;;;5093525;28;20626;-72
2021/04/05 06:24:25;;;;;;;14.15;8.50;;;;;;;;;;5092870;28;20271;-72
2021/04/05 06:26:53;;;;;;;18.05;8.85;;;;;;;;;;5093654;28;20200;-72
2021/04/05 06:29:27;;;;;;;21.42;9.65;;;;;;;;;;5093335;28;20295;-72
2021/04/05 06:32:15;;;;;;;25.27;9.65;;;;;;;;;;5092830;28;20291;-72
2021/04/05 06:34:51;;;;;;;18.20;8.05;;;;;;;;;;5088765;28;20208;-71
2021/04/05 06:37:22;;;;;;;20.65;8.70;;;;;;;;;;5092646;28;20331;-72
2021/04/05 06:39:50;;;;;;;24.70;7.97;;;;;;;;;;5072811;28;20272;-72
2021/04/05 06:42:25;;;;;;;16.88;7.53;;;;;;;;;;5072794;28;20181;-73
2021/04/05 06:45:04;;;;;;;21.58;9.70;;;;;;;;;;5078807;28;20278;-73
2021/04/05 06:48:00;;;;;;;16.38;6.03;;;;;;;;;;5093073;28;20223;-72
2021/04/05 06:50:30;;;;;;;14.25;8.25;;;;;;;;;;5010997;28;20300;-73
2021/04/05 06:53:15;;;;;;;16.35;7.03;;;;;;;;;;5075626;28;20196;-73
2021/04/05 06:55:42;;;;;;;16.92;6.72;;;;;;;;;;5093411;28;20285;-72
2021/04/05 06:58:17;;;;;;;19.08;8.25;;;;;;;;;;5092950;28;20317;-72
2021/04/05 07:00:53;;;;;;;18.38;7.90;;;;;;;;;;5091966;28;20230;-72
2021/04/05 07:03:27;;;;;;;20.63;8.88;;;;;;;;;;5092957;28;20214;-72
2021/04/05 07:06:11;;;;;;;25.30;10.75;;;;;;;;;;5092558;28;20183;-71
2021/04/05 07:08:41;;;;;;;14.77;6.78;;;;;;;;;;5078999;28;21010;-72
2021/04/05 07:11:12;;;;;;;17.60;8.93;;;;;;;;;;5092428;28;20236;-72
2021/04/05 07:13:44;;;;;;;18.63;8.80;;;;;;;;;;5092832;28;20180;-72
2021/04/05 07:16:15;;;;;;;16.67;7.97;;;;;;;;;;5092390;28;20204;-72
2021/04/05 07:18:47;;;;;;;18.67;8.32;;;;;;;;;;5092738;28;20603;-72
2021/04/05 07:21:21;;;;;;;27.77;10.90;;;;;;;;;;5092169;28;20303;-73
2021/04/05 07:23:52;;;;;;;25.20;10.02;;;;;;;;;;5092261;28;20196;-73
2021/04/05 07:26:21;;;;;;;18.73;8.70;;;;;;;;;;5092458;28;20271;-72
2021/04/05 07:28:51;;;;;;;27.60;10.68;;;;;;;;;;5092166;28;20735;-72
2021/04/05 07:31:23;;;;;;;28.40;11.00;;;;;;;;;;5091478;28;20271;-73
2021/04/05 07:33:50;;;;;;;25.88;10.13;;;;;;;;;;5072594;28;20234;-72
2021/04/05 07:36:21;;;;;;;33.22;11.90;;;;;;;;;;5071543;28;20300;-73
2021/04/05 07:38:52;;;;;;;40.88;12.35;;;;;;;;;;5071422;28;20287;-72
2021/04/05 07:41:24;;;;;;;21.88;10.35;;;;;;;;;;5071795;28;20203;-73
2021/04/05 07:44:09;;;;;;;24.08;10.38;;;;;;;;;;5071467;28;20259;-73
2021/04/05 07:46:38;;;;;;;21.20;11.13;;;;;;;;;;5071979;28;20236;-73
2021/04/05 07:49:09;;;;;;;27.75;11.48;;;;;;;;;;5091379;28;20214;-73
2021/04/05 07:51:40;;;;;;;17.40;9.65;;;;;;;;;;5091633;28;20199;-72
2021/04/05 07:54:07;;;;;;;19.20;10.05;;;;;;;;;;5092031;28;20203;-72
2021/04/05 07:56:35;;;;;;;20.50;10.02;;;;;;;;;;5091903;28;20236;-75
2021/04/05 07:59:05;;;;;;;30.05;10.23;;;;;;;;;;5092256;28;20856;-72
2021/04/05 08:01:40;;;;;;;19.98;8.32;;;;;;;;;;5091342;28;20197;-72
2021/04/05 08:04:11;;;;;;;18.13;8.30;;;;;;;;;;5091873;28;20200;-73
2021/04/05 08:06:44;;;;;;;11.35;6.72;;;;;;;;;;5091688;28;20204;-72
2021/04/05 08:09:11;;;;;;;18.83;8.63;;;;;;;;;;5092574;28;20757;-73
2021/04/05 08:11:43;;;;;;;17.83;8.85;;;;;;;;;;5092669;28;20204;-72
2021/04/05 08:14:14;;;;;;;19.20;9.00;;;;;;;;;;5092145;28;20703;-72
2021/04/05 08:16:46;;;;;;;14.55;5.07;;;;;;;;;;5091882;28;20220;-71
2021/04/05 08:19:13;;;;;;;16.30;7.20;;;;;;;;;;5091297;28;20267;-70
2021/04/05 08:21:43;;;;;;;17.95;9.30;;;;;;;;;;5091050;28;20619;-71
2021/04/05 08:24:12;;;;;;;15.55;7.72;;;;;;;;;;5091632;28;20200;-71
2021/04/05 08:26:41;;;;;;;18.23;7.80;;;;;;;;;;5091778;28;20207;-70
2021/04/05 08:29:10;;;;;;;9.48;6.05;;;;;;;;;;5091408;28;20220;-70
2021/04/05 08:31:47;;;;;;;11.80;5.47;;;;;;;;;;5092221;28;20204;-71
2021/04/05 08:34:23;;;;;;;11.82;5.90;;;;;;;;;;5091635;28;20200;-71
2021/04/05 08:36:56;;;;;;;13.18;7.80;;;;;;;;;;5091194;28;20227;-71
2021/04/05 08:39:28;;;;;;;26.30;11.77;;;;;;;;;;5091711;28;20211;-71
2021/04/05 08:41:58;;;;;;;12.55;6.63;;;;;;;;;;5091965;28;20192;-71
2021/04/05 08:44:27;;;;;;;7.25;5.10;;;;;;;;;;5091928;28;20240;-71
2021/04/05 08:46:55;;;;;;;16.05;7.95;;;;;;;;;;5092309;28;20640;-70
2021/04/05 08:49:23;;;;;;;11.23;5.50;;;;;;;;;;5095223;28;20670;-69
2021/04/05 08:51:50;;;;;;;10.60;6.20;;;;;;;;;;5094855;28;20355;-71
2021/04/05 08:54:20;;;;;;;17.13;9.32;;;;;;;;;;5094958;28;20191;-71
2021/04/05 08:56:47;;;;;;;22.73;9.25;;;;;;;;;;5095318;28;20239;-72
2021/04/05 08:59:19;;;;;;;12.00;6.65;;;;;;;;;;5095345;28;20296;-71
2021/04/05 09:01:47;;;;;;;17.95;7.65;;;;;;;;;;5094753;28;20192;-71
2021/04/05 09:04:15;;;;;;;16.73;8.85;;;;;;;;;;5095088;28;20192;-71
2021/04/05 09:06:48;;;;;;;13.10;5.90;;;;;;;;;;5094754;28;20196;-71
2021/04/05 09:09:16;;;;;;;19.65;7.65;;;;;;;;;;5095233;28;20226;-70
2021/04/05 09:11:42;;;;;;;9.85;5.70;;;;;;;;;;5095031;28;20204;-71
2021/04/05 09:14:12;;;;;;;6.05;4.78;;;;;;;;;;5094378;28;20199;-72
2021/04/05 09:16:57;;;;;;;18.02;7.80;;;;;;;;;;5094935;28;20204;-72
2021/04/05 09:19:50;;;;;;;12.40;6.78;;;;;;;;;;5094774;28;20195;-71
2021/04/05 09:22:29;;;;;;;17.63;8.70;;;;;;;;;;5094923;28;20564;-71
2021/04/05 09:25:17;;;;;;;7.65;4.43;;;;;;;;;;5094830;28;20213;-72
2021/04/05 09:27:57;;;;;;;13.27;6.20;;;;;;;;;;5094614;28;20225;-71
2021/04/05 09:30:42;;;;;;;13.10;5.88;;;;;;;;;;5094667;28;20626;-71
2021/04/05 09:33:25;;;;;;;17.45;8.82;;;;;;;;;;5094101;28;20196;-72
2021/04/05 09:36:02;;;;;;;15.55;8.13;;;;;;;;;;5094396;28;20280;-72
2021/04/05 09:38:49;;;;;;;12.95;7.32;;;;;;;;;;5094892;28;20644;-71
2021/04/05 09:41:29;;;;;;;15.23;6.95;;;;;;;;;;5060625;28;20618;-71
2021/04/05 09:44:08;;;;;;;14.93;7.00;;;;;;;;;;5093596;28;20290;-72
2021/04/05 09:46:51;;;;;;;15.23;8.57;;;;;;;;;;5093916;28;20257;-72
2021/04/05 09:49:21;;;;;;;4.38;3.13;;;;;;;;;;5093721;28;20232;-71
2021/04/05 09:51:56;;;;;;;21.15;7.32;;;;;;;;;;5093848;28;20188;-72
2021/04/05 09:54:32;;;;;;;13.55;5.80;;;;;;;;;;5093776;28;20183;-71
2021/04/05 09:57:02;;;;;;;9.65;5.75;;;;;;;;;;5094263;28;20961;-71
2021/04/05 09:59:35;;;;;;;17.42;6.95;;;;;;;;;;5092947;28;20233;-71
2021/04/05 10:02:02;;;;;;;25.08;6.63;;;;;;;;;;5093708;28;20246;-72
2021/04/05 10:04:29;;;;;;;10.00;4.13;;;;;;;;;;5093812;28;20207;-71
2021/04/05 10:06:56;;;;;;;9.27;3.92;;;;;;;;;;5093631;28;20231;-72
2021/04/05 10:09:27;;;;;;;10.77;6.10;;;;;;;;;;5093627;28;20208;-71
2021/04/05 10:11:54;;;;;;;9.00;4.80;;;;;;;;;;5093473;28;20212;-72
2021/04/05 10:14:23;;;;;;;10.23;5.38;;;;;;;;;;5093211;28;20200;-72
2021/04/05 10:16:53;;;;;;;10.63;4.70;;;;;;;;;;5093126;28;20246;-71
2021/04/05 10:19:23;;;;;;;12.40;7.03;;;;;;;;;;5093574;28;20187;-72
2021/04/05 10:21:51;;;;;;;11.70;5.60;;;;;;;;;;5094090;28;20239;-71
2021/04/05 10:24:20;;;;;;;10.35;5.75;;;;;;;;;;5093727;28;20243;-71
2021/04/05 10:26:48;;;;;;;7.35;4.55;;;;;;;;;;5093223;28;20204;-72
2021/04/05 10:29:15;;;;;;;4.95;4.25;;;;;;;;;;5093106;28;20658;-71
2021/04/05 10:31:43;;;;;;;13.77;5.72;;;;;;;;;;5093385;28;20697;-71
2021/04/05 10:34:11;;;;;;;11.07;5.88;;;;;;;;;;5094046;28;20512;-71
2021/04/05 10:36:39;;;;;;;8.63;5.60;;;;;;;;;;5093582;28;20231;-71
2021/04/05 10:39:06;;;;;;;14.60;5.70;;;;;;;;;;5093489;28;20192;-74
2021/04/05 10:41:33;;;;;;;8.30;4.70;;;;;;;;;;5093947;28;20191;-70
2021/04/05 10:44:01;;;;;;;7.82;5.18;;;;;;;;;;5093363;28;20215;-73
2021/04/05 10:46:29;;;;;;;6.05;3.83;;;;;;;;;;5093576;28;20210;-73
2021/04/05 10:48:58;;;;;;;14.40;6.22;;;;;;;;;;5093101;28;20691;-73
2021/04/05 10:51:26;;;;;;;4.63;3.72;;;;;;;;;;5093279;28;20295;-74
2021/04/05 10:53:58;;;;;;;18.55;7.53;;;;;;;;;;5093608;28;20543;-74
2021/04/05 10:56:24;;;;;;;10.35;6.20;;;;;;;;;;5093492;28;20285;-74
2021/04/05 10:58:54;;;;;;;13.32;6.70;;;;;;;;;;5093584;28;20642;-74
2021/04/05 11:01:21;;;;;;;16.50;8.82;;;;;;;;;;5093276;28;20199;-72
2021/04/05 11:03:49;;;;;;;9.63;5.10;;;;;;;;;;5093219;28;20614;-74
2021/04/05 11:06:17;;;;;;;11.80;7.80;;;;;;;;;;5093836;28;20346;-74
2021/04/05 11:08:47;;;;;;;10.27;6.55;;;;;;;;;;5093393;28;20212;-75
2021/04/05 11:11:15;;;;;;;12.13;6.45;;;;;;;;;;5093108;28;20196;-74
2021/04/05 11:13:43;;;;;;;7.35;4.57;;;;;;;;;;5093709;28;20208;-73
2021/04/05 11:16:10;;;;;;;14.02;6.47;;;;;;;;;;5093458;28;20208;-74
2021/04/05 11:18:37;;;;;;;20.52;6.95;;;;;;;;;;5093879;28;20196;-73
2021/04/05 11:21:04;;;;;;;18.45;7.13;;;;;;;;;;5094171;28;20286;-72
2021/04/05 11:23:34;;;;;;;13.85;8.05;;;;;;;;;;5093706;28;20206;-74
2021/04/05 11:26:01;;;;;;;9.73;4.85;;;;;;;;;;5093923;28;20626;-73
2021/04/05 11:28:29;;;;;;;10.68;4.57;;;;;;;;;;5094028;28;20681;-74
2021/04/05 11:30:57;;;;;;;12.43;6.40;;;;;;;;;;5093881;28;20601;-73
2021/04/05 11:33:25;;;;;;;21.60;7.70;;;;;;;;;;5094049;28;20558;-73
2021/04/05 11:35:52;;;;;;;14.30;7.80;;;;;;;;;;5093248;28;20280;-73
2021/04/05 11:38:19;;;;;;;15.80;7.65;;;;;;;;;;5093259;28;20204;-74
2021/04/05 11:40:47;;;;;;;22.58;9.43;;;;;;;;;;5092825;28;20537;-74
2021/04/05 11:43:15;;;;;;;15.05;7.95;;;;;;;;;;5093190;28;20607;-74
2021/04/05 11:45:42;;;;;;;7.70;5.13;;;;;;;;;;5092951;28;20563;-72
2021/04/05 11:48:11;;;;;;;17.75;7.00;;;;;;;;;;5092550;28;20229;-73
2021/04/05 11:50:42;;;;;;;15.32;8.45;;;;;;;;;;5092440;28;20283;-73
2021/04/05 11:53:10;;;;;;;8.93;5.53;;;;;;;;;;5092820;28;20231;-73
2021/04/05 11:55:38;;;;;;;17.73;9.55;;;;;;;;;;5092577;28;20204;-74
2021/04/05 11:58:08;;;;;;;25.30;9.80;;;;;;;;;;5092758;28;20215;-73
2021/04/05 12:00:37;;;;;;;11.90;8.77;;;;;;;;;;5092997;28;20200;-74
2021/04/05 12:03:08;;;;;;;19.40;8.00;;;;;;;;;;5092793;28;20634;-73
2021/04/05 12:05:37;;;;;;;10.82;5.57;;;;;;;;;;5092658;28;20204;-74
2021/04/05 12:08:08;;;;;;;15.55;8.05;;;;;;;;;;5092998;28;20200;-73
2021/04/05 12:10:35;;;;;;;14.18;6.88;;;;;;;;;;5092449;28;20295;-73
2021/04/05 12:13:06;;;;;;;13.18;5.45;;;;;;;;;;5092782;28;20199;-73
2021/04/05 12:15:33;;;;;;;14.27;6.82;;;;;;;;;;5093245;28;20200;-73
2021/04/05 12:18:01;;;;;;;14.10;8.75;;;;;;;;;;5092425;28;20244;-73
2021/04/05 12:20:29;;;;;;;18.08;6.30;;;;;;;;;;5092492;28;20196;-73
2021/04/05 12:22:55;;;;;;;5.22;4.72;;;;;;;;;;5094980;28;20306;-73
2021/04/05 12:25:31;;;;;;;12.38;7.60;;;;;;;;;;5096515;28;20194;-73
2021/04/05 12:27:58;;;;;;;15.50;7.40;;;;;;;;;;5095717;28;20199;-73
2021/04/05 12:30:25;;;;;;;14.63;7.70;;;;;;;;;;5095701;28;20216;-73
2021/04/05 12:32:53;;;;;;;8.50;4.93;;;;;;;;;;5095790;28;20172;-73
2021/04/05 12:35:21;;;;;;;15.50;7.93;;;;;;;;;;5095103;28;20669;-73
2021/04/05 12:37:52;;;;;;;15.43;8.70;;;;;;;;;;5095482;28;20664;-75
2021/04/05 12:40:22;;;;;;;17.02;7.40;;;;;;;;;;5095725;28;20253;-74
2021/04/05 12:42:49;;;;;;;5.05;4.28;;;;;;;;;;5095535;28;20305;-74
2021/04/05 12:45:16;;;;;;;17.85;8.27;;;;;;;;;;5095047;28;20199;-76
2021/04/05 12:47:43;;;;;;;12.02;7.95;;;;;;;;;;5095700;28;20295;-74
2021/04/05 12:50:12;;;;;;;15.75;6.55;;;;;;;;;;5095122;28;20239;-73
2021/04/05 12:52:38;;;;;;;20.73;6.88;;;;;;;;;;5095009;28;20674;-74
2021/04/05 12:55:08;;;;;;;10.40;6.85;;;;;;;;;;5095051;28;20191;-74
2021/04/05 12:57:35;;;;;;;6.22;4.20;;;;;;;;;;5095529;28;20193;-74
2021/04/05 13:00:01;;;;;;;9.10;5.38;;;;;;;;;;5095733;28;20204;-74
2021/04/05 13:02:30;;;;;;;8.23;4.18;;;;;;;;;;5094676;28;20200;-74
2021/04/05 13:04:57;;;;;;;12.52;5.15;;;;;;;;;;5095368;28;20703;-74
2021/04/05 13:07:26;;;;;;;12.10;4.43;;;;;;;;;;5095095;28;20655;-73
2021/04/05 13:09:54;;;;;;;7.93;4.35;;;;;;;;;;5094512;28;20234;-74
2021/04/05 13:12:22;;;;;;;6.63;4.00;;;;;;;;;;5094900;28;20726;-73
2021/04/05 13:14:50;;;;;;;9.88;5.75;;;;;;;;;;5094809;28;20192;-74
2021/04/05 13:17:22;;;;;;;5.93;3.05;;;;;;;;;;5094630;28;20279;-74
2021/04/05 13:19:49;;;;;;;10.43;5.18;;;;;;;;;;5095286;28;20203;-75
2021/04/05 13:22:16;;;;;;;6.88;3.72;;;;;;;;;;5094731;28;20200;-74
2021/04/05 13:24:47;;;;;;;9.88;4.80;;;;;;;;;;5094780;28;20277;-72
2021/04/05 13:27:21;;;;;;;5.05;3.25;;;;;;;;;;5094848;28;20531;-73
2021/04/05 13:29:47;;;;;;;7.13;3.00;;;;;;;;;;5095079;28;20974;-74
2021/04/05 13:32:15;;;;;;;2.65;1.60;;;;;;;;;;5095137;28;20200;-73
2021/04/05 13:34:41;;;;;;;3.47;2.33;;;;;;;;;;5094970;28;20564;-74
2021/04/05 13:37:08;;;;;;;3.15;1.73;;;;;;;;;;5094867;28;20637;-73
2021/04/05 13:39:35;;;;;;;0.93;0.77;;;;;;;;;;5094631;28;20180;-74
2021/04/05 13:42:04;;;;;;;1.95;1.08;;;;;;;;;;5094848;28;20206;-72
2021/04/05 13:44:32;;;;;;;1.38;0.90;;;;;;;;;;5094779;28;20208;-73
2021/04/05 13:47:00;;;;;;;2.35;1.00;;;;;;;;;;5094660;28;20567;-74
2021/04/05 13:49:30;;;;;;;1.23;1.13;;;;;;;;;;5094794;28;20220;-74
2021/04/05 13:51:57;;;;;;;2.03;1.60;;;;;;;;;;5095363;28;20253;-73
2021/04/05 13:54:24;;;;;;;1.30;1.08;;;;;;;;;;5094950;28;20630;-73
2021/04/05 13:56:53;;;;;;;2.88;1.23;;;;;;;;;;5095198;28;20208;-74
2021/04/05 13:59:21;;;;;;;1.20;1.10;;;;;;;;;;5095402;28;20187;-74
2021/04/05 14:01:47;;;;;;;1.52;1.17;;;;;;;;;;5093904;28;20190;-74
2021/04/05 14:04:14;;;;;;;1.38;1.00;;;;;;;;;;5094026;28;20285;-74
2021/04/05 14:06:43;;;;;;;0.90;0.80;;;;;;;;;;5095004;28;20549;-74
2021/04/05 14:09:10;;;;;;;1.35;0.90;;;;;;;;;;5094217;28;20765;-72
2021/04/05 14:11:37;;;;;;;1.02;0.75;;;;;;;;;;5094022;28;20539;-73
2021/04/05 14:14:03;;;;;;;2.45;1.00;;;;;;;;;;5093930;28;20199;-74
2021/04/05 14:16:33;;;;;;;0.98;0.88;;;;;;;;;;5093565;28;20199;-74
2021/04/05 14:19:05;;;;;;;2.00;1.10;;;;;;;;;;5094061;28;20191;-74
2021/04/05 14:21:33;;;;;;;0.95;0.82;;;;;;;;;;5093901;28;20250;-73
2021/04/05 14:24:03;;;;;;;1.15;1.05;;;;;;;;;;5093629;28;20207;-73
2021/04/05 14:26:31;;;;;;;1.35;1.20;;;;;;;;;;5093673;28;20194;-74
2021/04/05 14:28:58;;;;;;;1.25;0.90;;;;;;;;;;5093490;28;20200;-74
2021/04/05 14:31:28;;;;;;;0.98;0.90;;;;;;;;;;5092811;28;20289;-73
2021/04/05 14:33:56;;;;;;;0.70;0.70;;;;;;;;;;5093780;28;20250;-75
2021/04/05 14:36:24;;;;;;;1.00;0.80;;;;;;;;;;5092943;28;20269;-73
2021/04/05 14:38:52;;;;;;;1.10;1.00;;;;;;;;;;5093614;28;20235;-74
2021/04/05 14:41:22;;;;;;;1.38;1.00;;;;;;;;;;5092811;28;20207;-74